Time;durP1;ratioP1;P1;durP2;ratioP2;P2;SDS_P1;SDS_P2;PMS_P1;PMS_P2;Temp;Humidity;BMP_temperature;BMP_pressure;BME280_temperature;BME280_humidity;BME280_pressure;Samples;Min_cycle;Max_cycle;Signal;HPM_P1;HPM_P2
2022/08/09 00:01:27;;;;;;;7.25;3.55;;;16.00;99.90;;;;;;5049174;28;20487;-62
2022/08/09 00:03:53;;;;;;;6.65;3.67;;;16.00;99.90;;;;;;5049036;27;20077;-62
2022/08/09 00:06:19;;;;;;;9.43;3.83;;;15.90;99.90;;;;;;5040570;27;20044;-62
2022/08/09 00:08:47;;;;;;;5.85;3.67;;;15.90;99.90;;;;;;5047025;27;20158;-63
2022/08/09 00:11:14;;;;;;;5.93;3.67;;;15.90;99.90;;;;;;5018168;28;20053;-62
2022/08/09 00:13:40;;;;;;;7.30;3.95;;;15.90;99.90;;;;;;5042176;27;20115;-62
2022/08/09 00:16:06;;;;;;;4.80;3.33;;;15.80;99.90;;;;;;5034569;27;20048;-62
2022/08/09 00:18:33;;;;;;;8.73;4.13;;;15.80;99.90;;;;;;5067796;27;20037;-62
2022/08/09 00:20:58;;;;;;;7.78;3.90;;;15.80;99.90;;;;;;5048256;27;20036;-64
2022/08/09 00:23:24;;;;;;;4.97;3.67;;;15.80;99.90;;;;;;5030553;28;20036;-62
2022/08/09 00:25:50;;;;;;;6.35;3.90;;;15.80;99.90;;;;;;5029853;28;20120;-62
2022/08/09 00:28:15;;;;;;;5.70;3.78;;;15.70;99.90;;;;;;5028439;28;20133;-62
2022/08/09 00:30:41;;;;;;;6.28;4.30;;;15.70;99.90;;;;;;5048808;28;20120;-63
2022/08/09 00:33:07;;;;;;;5.55;3.67;;;15.60;99.90;;;;;;5056192;27;20041;-63
2022/08/09 00:35:33;;;;;;;5.78;3.95;;;15.60;99.90;;;;;;5048625;28;20113;-62
2022/08/09 00:37:58;;;;;;;5.63;3.65;;;15.50;99.90;;;;;;5047401;28;20045;-62
2022/08/09 00:40:24;;;;;;;6.57;3.63;;;15.50;99.90;;;;;;5040732;27;20040;-62
2022/08/09 00:42:50;;;;;;;5.07;3.53;;;15.50;99.90;;;;;;5028999;28;20039;-63
2022/08/09 00:45:15;;;;;;;5.47;4.00;;;15.40;99.90;;;;;;5048179;27;20097;-62
2022/08/09 00:47:41;;;;;;;5.63;3.65;;;15.40;99.90;;;;;;5045666;28;20564;-63
2022/08/09 00:50:07;;;;;;;7.80;4.13;;;15.30;99.90;;;;;;5042213;27;20045;-62
2022/08/09 00:52:33;;;;;;;7.70;3.95;;;15.30;99.90;;;;;;5048250;27;20033;-64
2022/08/09 00:55:00;;;;;;;5.75;3.50;;;15.30;99.90;;;;;;5057651;27;20052;-62
2022/08/09 00:57:27;;;;;;;6.70;3.78;;;15.30;99.90;;;;;;5025898;28;20060;-63
2022/08/09 00:59:52;;;;;;;8.13;4.03;;;15.30;99.90;;;;;;5048583;28;20048;-63
2022/08/09 01:02:22;;;;;;;6.82;3.90;;;15.20;99.90;;;;;;5070724;28;20410;-62
2022/08/09 01:05:21;;;;;;;7.53;4.10;;;15.20;99.90;;;;;;5064644;27;20076;-63
2022/08/09 01:08:14;;;;;;;7.15;3.90;;;15.20;99.90;;;;;;5067501;27;20494;-63
2022/08/09 01:11:22;;;;;;;7.55;4.47;;;15.20;99.90;;;;;;5028252;27;20053;-64
2022/08/09 01:14:07;;;;;;;7.82;4.63;;;15.20;99.90;;;;;;5043541;28;20051;-65
2022/08/09 01:16:38;;;;;;;5.95;4.40;;;15.20;99.90;;;;;;5046256;27;20045;-64
2022/08/09 01:19:45;;;;;;;6.60;4.03;;;15.20;99.90;;;;;;5043338;27;20049;-65
2022/08/09 01:22:29;;;;;;;6.07;4.65;;;15.20;99.90;;;;;;5047546;27;20054;-65
2022/08/09 01:25:31;;;;;;;6.40;4.68;;;15.10;99.90;;;;;;5095129;27;20044;-64
2022/08/09 01:27:58;;;;;;;7.30;4.35;;;15.10;99.90;;;;;;5087326;27;20388;-64
2022/08/09 01:30:27;;;;;;;7.30;4.85;;;15.20;99.90;;;;;;5056713;27;20499;-65
2022/08/09 01:32:56;;;;;;;7.82;4.43;;;15.10;99.90;;;;;;5044413;27;20120;-64
2022/08/09 01:35:24;;;;;;;8.20;4.97;;;15.10;99.90;;;;;;5045848;27;20437;-64
2022/08/09 01:37:54;;;;;;;6.15;4.40;;;15.10;99.90;;;;;;5047416;27;20037;-63
2022/08/09 01:40:21;;;;;;;7.20;4.43;;;15.10;99.90;;;;;;5047459;28;20037;-63
2022/08/09 01:42:49;;;;;;;7.00;4.55;;;15.10;99.90;;;;;;5047695;27;20459;-64
2022/08/09 01:45:15;;;;;;;6.00;4.38;;;15.10;99.90;;;;;;5047232;27;20124;-64
2022/08/09 01:47:43;;;;;;;7.72;4.40;;;15.10;99.90;;;;;;5044435;27;20041;-65
2022/08/09 01:50:10;;;;;;;7.28;4.63;;;15.00;99.90;;;;;;5069750;27;20229;-63
2022/08/09 01:52:37;;;;;;;7.38;4.45;;;15.00;99.90;;;;;;5022787;27;20049;-63
2022/08/09 01:55:05;;;;;;;8.48;4.60;;;15.00;99.90;;;;;;5066689;27;20049;-65
2022/08/09 01:57:39;;;;;;;7.95;4.50;;;15.00;99.90;;;;;;5042921;28;20098;-63
2022/08/09 02:00:07;;;;;;;6.38;4.25;;;15.00;99.90;;;;;;5029421;28;20095;-64
2022/08/09 02:02:37;;;;;;;7.32;4.38;;;15.00;99.90;;;;;;5041972;27;20029;-65
2022/08/09 02:05:06;;;;;;;5.95;4.20;;;14.90;99.90;;;;;;5027208;27;20102;-63
2022/08/09 02:07:36;;;;;;;7.45;4.88;;;14.90;99.90;;;;;;5066629;27;20398;-64
2022/08/09 02:10:16;;;;;;;6.97;4.53;;;14.90;99.90;;;;;;5047015;27;20066;-64
2022/08/09 02:12:43;;;;;;;7.88;4.50;;;14.80;99.90;;;;;;5025488;27;20136;-64
2022/08/09 02:15:10;;;;;;;7.78;4.45;;;14.80;99.90;;;;;;5055209;27;20558;-63
2022/08/09 02:17:38;;;;;;;5.07;4.00;;;14.90;99.90;;;;;;5038641;28;20140;-63
2022/08/09 02:20:05;;;;;;;6.32;4.65;;;14.80;99.90;;;;;;5046620;27;20444;-64
2022/08/09 02:22:55;;;;;;;5.95;4.40;;;14.80;99.90;;;;;;5043276;28;20487;-63
2022/08/09 02:25:26;;;;;;;7.60;4.95;;;14.80;99.90;;;;;;5069726;27;20495;-63
2022/08/09 02:28:30;;;;;;;8.75;4.80;;;14.80;99.90;;;;;;5048771;27;20093;-63
2022/08/09 02:31:06;;;;;;;7.63;4.43;;;14.80;99.90;;;;;;5037614;28;20460;-64
2022/08/09 02:33:39;;;;;;;6.50;4.45;;;14.80;99.90;;;;;;5041880;28;20041;-63
2022/08/09 02:36:08;;;;;;;5.93;4.70;;;14.80;99.90;;;;;;5053046;27;20063;-63
2022/08/09 02:38:41;;;;;;;6.70;4.32;;;14.80;99.90;;;;;;5046120;28;20037;-63
2022/08/09 02:41:09;;;;;;;8.00;4.47;;;14.80;99.90;;;;;;5028270;28;20033;-64
2022/08/09 02:43:38;;;;;;;8.13;4.95;;;14.60;99.90;;;;;;5026453;28;20048;-64
2022/08/09 02:46:07;;;;;;;8.27;4.70;;;14.80;99.90;;;;;;5035826;28;20037;-63
2022/08/09 02:48:35;;;;;;;7.75;4.95;;;14.90;99.90;;;;;;5046456;28;20041;-63
2022/08/09 02:51:01;;;;;;;6.65;4.95;;;14.80;99.90;;;;;;5058246;28;20052;-64
2022/08/09 02:53:32;;;;;;;7.25;4.93;;;14.90;99.90;;;;;;5028951;28;20033;-63
2022/08/09 02:56:00;;;;;;;8.88;4.63;;;14.90;99.90;;;;;;5045755;28;20491;-63
2022/08/09 02:58:28;;;;;;;6.03;4.13;;;14.80;99.90;;;;;;5045296;27;20040;-63
2022/08/09 03:00:56;;;;;;;7.13;4.82;;;14.80;99.90;;;;;;5044769;28;20105;-63
2022/08/09 03:03:23;;;;;;;8.80;4.78;;;14.80;99.90;;;;;;5046645;28;20123;-63
2022/08/09 03:05:50;;;;;;;9.68;5.03;;;14.80;99.90;;;;;;5046484;28;20044;-63
2022/08/09 03:08:17;;;;;;;7.53;4.78;;;14.80;99.90;;;;;;5045840;27;20041;-63
2022/08/09 03:10:45;;;;;;;7.18;4.80;;;14.80;99.90;;;;;;5040734;27;20037;-63
2022/08/09 03:13:13;;;;;;;6.90;4.53;;;14.80;99.90;;;;;;5046714;27;20117;-64
2022/08/09 03:15:40;;;;;;;6.18;4.68;;;14.80;99.90;;;;;;5040812;27;20101;-63
2022/08/09 03:18:08;;;;;;;6.25;4.63;;;14.70;99.90;;;;;;5045452;27;20105;-65
2022/08/09 03:20:36;;;;;;;9.23;4.70;;;14.70;99.90;;;;;;5039396;28;20056;-63
2022/08/09 03:23:03;;;;;;;7.28;4.43;;;14.70;99.90;;;;;;5045476;28;20112;-63
2022/08/09 03:25:30;;;;;;;8.05;4.85;;;14.70;99.90;;;;;;5045525;27;20029;-63
2022/08/09 03:28:00;;;;;;;8.07;5.28;;;14.70;99.90;;;;;;5078315;27;20049;-63
2022/08/09 03:30:27;;;;;;;8.13;4.80;;;14.70;99.90;;;;;;5042297;28;20506;-64
2022/08/09 03:32:55;;;;;;;9.25;5.00;;;14.70;99.90;;;;;;5042417;28;20047;-63
2022/08/09 03:35:20;;;;;;;6.03;4.70;;;14.70;99.90;;;;;;5045811;27;20037;-63
2022/08/09 03:37:47;;;;;;;8.13;5.10;;;14.70;99.90;;;;;;5045649;28;20566;-63
2022/08/09 03:40:14;;;;;;;7.13;4.47;;;14.70;99.90;;;;;;5043659;27;20514;-63
2022/08/09 03:42:40;;;;;;;9.02;5.57;;;14.70;99.90;;;;;;5030436;28;20045;-65
2022/08/09 03:45:06;;;;;;;7.85;5.25;;;14.70;99.90;;;;;;5048107;28;20037;-64
2022/08/09 03:47:32;;;;;;;8.18;4.78;;;14.70;99.90;;;;;;5030447;28;20036;-64
2022/08/09 03:50:00;;;;;;;8.68;5.22;;;14.70;99.90;;;;;;5049500;28;20037;-64
2022/08/09 03:52:28;;;;;;;7.95;5.20;;;14.70;99.90;;;;;;5048996;28;20037;-65
2022/08/09 03:54:56;;;;;;;8.75;4.97;;;14.70;99.90;;;;;;5048677;27;20040;-63
2022/08/09 03:57:22;;;;;;;8.88;5.10;;;14.70;99.90;;;;;;5048314;28;20094;-65
2022/08/09 03:59:51;;;;;;;8.13;5.22;;;14.70;99.90;;;;;;5047325;28;20040;-64
2022/08/09 04:02:18;;;;;;;8.98;5.30;;;14.70;99.90;;;;;;5048884;27;20072;-64
2022/08/09 04:04:44;;;;;;;8.82;5.47;;;14.70;99.90;;;;;;5025554;28;20106;-63
2022/08/09 04:07:09;;;;;;;9.43;5.38;;;14.70;99.90;;;;;;5095903;27;20495;-63
2022/08/09 04:09:35;;;;;;;9.50;5.40;;;14.70;99.90;;;;;;5042267;27;20491;-63
2022/08/09 04:12:45;;;;;;;6.88;5.05;;;14.70;99.90;;;;;;5045859;27;20440;-64
2022/08/09 04:15:13;;;;;;;8.68;4.93;;;14.70;99.90;;;;;;5082281;27;20057;-64
2022/08/09 04:17:40;;;;;;;7.40;5.32;;;14.70;99.90;;;;;;5048466;28;20263;-63
2022/08/09 04:20:07;;;;;;;7.28;4.88;;;14.70;99.90;;;;;;5041930;28;20043;-63
2022/08/09 04:22:32;;;;;;;9.32;5.70;;;14.70;99.90;;;;;;5032494;27;20033;-63
2022/08/09 04:24:58;;;;;;;8.18;5.25;;;14.60;99.90;;;;;;5018511;28;20510;-63
2022/08/09 04:27:24;;;;;;;9.50;5.28;;;14.60;99.90;;;;;;5034558;28;20037;-63
2022/08/09 04:29:50;;;;;;;8.25;5.30;;;14.60;99.90;;;;;;5042031;28;20404;-64
2022/08/09 04:32:16;;;;;;;9.32;5.50;;;14.60;99.90;;;;;;5047038;27;20040;-63
2022/08/09 04:34:41;;;;;;;7.63;5.38;;;14.60;99.90;;;;;;5046019;27;20037;-64
2022/08/09 04:37:07;;;;;;;8.30;5.60;;;14.60;99.90;;;;;;5039386;27;20068;-63
2022/08/09 04:39:32;;;;;;;7.38;5.05;;;14.60;99.90;;;;;;5050623;28;20398;-63
2022/08/09 04:41:58;;;;;;;8.68;5.55;;;14.60;99.90;;;;;;5040189;28;20080;-64
2022/08/09 04:44:24;;;;;;;10.73;6.03;;;14.60;99.90;;;;;;5048353;28;20112;-63
2022/08/09 04:46:50;;;;;;;8.75;5.82;;;14.60;99.90;;;;;;5033999;27;20041;-64
2022/08/09 04:49:16;;;;;;;7.90;5.60;;;14.60;99.90;;;;;;5044616;27;20406;-64
2022/08/09 04:51:42;;;;;;;8.88;5.70;;;14.60;99.90;;;;;;5044147;27;20033;-63
2022/08/09 04:54:08;;;;;;;7.22;5.50;;;14.60;99.90;;;;;;5026838;27;20040;-63
2022/08/09 04:56:33;;;;;;;7.68;5.25;;;14.60;99.90;;;;;;5046194;28;20245;-63
2022/08/09 04:58:59;;;;;;;8.85;5.72;;;14.70;99.90;;;;;;5041268;28;20033;-64
2022/08/09 05:01:25;;;;;;;8.75;6.10;;;14.60;99.90;;;;;;5044776;27;20124;-64
2022/08/09 05:03:50;;;;;;;8.20;5.65;;;14.70;99.90;;;;;;5036710;28;20038;-64
2022/08/09 05:06:16;;;;;;;8.77;5.65;;;14.70;99.90;;;;;;5040594;27;20085;-65
2022/08/09 05:08:42;;;;;;;8.18;5.57;;;14.70;99.90;;;;;;5039618;28;20771;-65
2022/08/09 05:11:07;;;;;;;11.35;5.85;;;14.70;99.90;;;;;;5040166;27;20078;-64
2022/08/09 05:13:34;;;;;;;9.27;5.90;;;14.70;99.90;;;;;;5039225;28;20034;-66
2022/08/09 05:16:00;;;;;;;9.15;5.68;;;14.70;99.90;;;;;;5036248;27;20133;-65
2022/08/09 05:18:28;;;;;;;9.00;5.30;;;14.70;99.90;;;;;;5070149;27;20601;-65
2022/08/09 05:20:55;;;;;;;8.75;5.55;;;14.80;99.90;;;;;;5040065;27;20037;-65
2022/08/09 05:23:22;;;;;;;7.65;5.30;;;14.80;99.90;;;;;;5029399;28;20041;-64
2022/08/09 05:25:48;;;;;;;8.60;4.75;;;14.80;99.90;;;;;;5063400;28;20093;-64
2022/08/09 05:28:14;;;;;;;9.90;5.45;;;14.80;99.90;;;;;;5044503;28;20085;-64
2022/08/09 05:30:39;;;;;;;9.93;5.03;;;14.80;99.90;;;;;;5042453;27;20037;-64
2022/08/09 05:33:05;;;;;;;9.60;5.45;;;14.80;99.90;;;;;;5045332;27;20072;-64
2022/08/09 05:35:31;;;;;;;7.38;5.05;;;14.80;99.90;;;;;;5028870;27;20119;-63
2022/08/09 05:37:56;;;;;;;8.43;5.63;;;14.90;99.90;;;;;;5029298;27;20245;-64
2022/08/09 05:40:24;;;;;;;9.50;5.32;;;14.80;99.90;;;;;;5037680;27;20029;-65
2022/08/09 05:42:50;;;;;;;8.20;5.22;;;14.90;99.90;;;;;;5035179;27;20137;-65
2022/08/09 05:45:16;;;;;;;10.65;5.70;;;14.90;99.90;;;;;;5035877;27;20070;-64
2022/08/09 05:47:42;;;;;;;9.18;5.55;;;14.90;99.90;;;;;;5038652;27;20537;-65
2022/08/09 05:50:08;;;;;;;7.28;4.80;;;14.90;99.90;;;;;;5046700;27;20041;-64
2022/08/09 05:52:34;;;;;;;8.10;4.93;;;15.00;99.90;;;;;;5047294;28;20040;-62
2022/08/09 05:55:00;;;;;;;9.32;5.38;;;15.00;99.90;;;;;;5084509;27;20399;-64
2022/08/09 05:57:26;;;;;;;7.65;4.97;;;15.00;99.90;;;;;;5042273;28;20029;-63
2022/08/09 05:59:51;;;;;;;9.88;5.35;;;15.00;99.90;;;;;;5028897;27;20072;-65
2022/08/09 06:02:17;;;;;;;8.52;5.43;;;15.10;99.90;;;;;;5114252;27;20547;-65
2022/08/09 06:04:43;;;;;;;8.68;5.40;;;15.10;99.90;;;;;;5040799;27;20146;-64
2022/08/09 06:07:08;;;;;;;8.00;5.45;;;15.10;99.90;;;;;;5059644;28;20041;-64
2022/08/09 06:09:34;;;;;;;8.70;4.90;;;15.10;99.90;;;;;;5046302;27;20029;-63
2022/08/09 06:12:00;;;;;;;8.52;5.25;;;15.20;99.90;;;;;;5045030;27;20116;-64
2022/08/09 06:14:26;;;;;;;9.65;5.47;;;15.20;99.90;;;;;;5047437;28;20521;-65
2022/08/09 06:16:51;;;;;;;8.18;4.90;;;15.20;99.90;;;;;;5037998;27;20045;-64
2022/08/09 06:19:17;;;;;;;9.90;5.43;;;15.20;99.90;;;;;;5045733;27;20040;-64
2022/08/09 06:21:44;;;;;;;8.95;5.57;;;15.30;99.90;;;;;;5048854;27;20037;-64
2022/08/09 06:24:09;;;;;;;8.80;5.50;;;15.30;99.90;;;;;;5060961;28;20117;-64
2022/08/09 06:26:40;;;;;;;12.18;5.40;;;15.30;99.90;;;;;;5046452;28;20486;-64
2022/08/09 06:29:07;;;;;;;8.70;5.00;;;15.30;99.90;;;;;;5043843;27;20494;-65
2022/08/09 06:31:33;;;;;;;9.00;5.30;;;15.40;99.90;;;;;;5048312;27;20044;-64
2022/08/09 06:33:59;;;;;;;8.45;4.95;;;15.40;99.90;;;;;;5038923;28;20391;-63
2022/08/09 06:36:25;;;;;;;7.75;4.60;;;15.40;99.90;;;;;;5027253;28;20064;-63
2022/08/09 06:38:50;;;;;;;8.93;5.07;;;15.50;99.90;;;;;;5014682;28;20049;-64
2022/08/09 06:41:16;;;;;;;11.60;5.18;;;15.50;99.90;;;;;;5029809;28;20036;-65
2022/08/09 06:43:42;;;;;;;6.75;4.82;;;15.60;99.90;;;;;;5029334;28;20495;-64
2022/08/09 06:46:07;;;;;;;7.57;4.90;;;15.60;99.90;;;;;;5046824;28;20037;-64
2022/08/09 06:48:33;;;;;;;7.15;4.60;;;15.70;99.90;;;;;;5046562;28;20037;-65
2022/08/09 06:50:59;;;;;;;8.13;4.53;;;15.70;99.90;;;;;;5045763;28;20041;-65
2022/08/09 06:53:24;;;;;;;8.00;4.18;;;15.70;99.90;;;;;;5041596;28;20033;-64
2022/08/09 06:55:50;;;;;;;7.50;4.30;;;15.70;99.90;;;;;;5030555;28;20037;-64
2022/08/09 06:58:16;;;;;;;6.43;3.83;;;15.80;99.90;;;;;;5046267;27;20062;-64
2022/08/09 07:00:41;;;;;;;7.93;4.10;;;15.80;99.90;;;;;;5073359;28;20077;-62
2022/08/09 07:03:07;;;;;;;5.88;3.67;;;15.90;99.90;;;;;;5042052;27;20033;-64
2022/08/09 07:05:33;;;;;;;5.70;3.40;;;15.90;99.90;;;;;;5028307;28;20041;-64
2022/08/09 07:07:58;;;;;;;6.57;3.35;;;15.90;99.90;;;;;;5028358;28;20041;-64
2022/08/09 07:10:24;;;;;;;5.85;3.42;;;15.90;99.90;;;;;;5012056;28;20037;-65
2022/08/09 07:12:50;;;;;;;7.25;3.65;;;16.00;99.90;;;;;;5044288;28;20041;-62
2022/08/09 07:15:16;;;;;;;6.03;3.22;;;16.00;99.90;;;;;;5046121;28;20053;-65
2022/08/09 07:17:41;;;;;;;5.65;3.45;;;16.10;99.90;;;;;;5049165;28;20097;-64
2022/08/09 07:20:08;;;;;;;5.55;2.72;;;16.10;99.90;;;;;;5032280;27;20041;-64
2022/08/09 07:22:33;;;;;;;5.53;3.33;;;16.10;99.90;;;;;;5045929;27;20100;-65
2022/08/09 07:24:59;;;;;;;6.55;3.05;;;16.20;99.90;;;;;;5031147;28;20127;-64
2022/08/09 07:27:26;;;;;;;6.07;3.17;;;16.20;99.90;;;;;;5041445;27;20037;-64
2022/08/09 07:29:55;;;;;;;6.03;3.28;;;16.30;99.90;;;;;;5044536;27;20048;-65
2022/08/09 07:32:20;;;;;;;7.70;3.58;;;16.30;99.90;;;;;;5049534;28;20574;-64
2022/08/09 07:34:46;;;;;;;4.20;2.95;;;16.40;99.90;;;;;;5048941;27;20131;-62
2022/08/09 07:37:12;;;;;;;5.75;2.90;;;16.40;99.90;;;;;;5045169;28;20039;-64
2022/08/09 07:39:38;;;;;;;5.03;3.10;;;16.50;99.90;;;;;;5044807;27;20040;-64
2022/08/09 07:42:04;;;;;;;7.38;3.22;;;16.50;99.90;;;;;;5094770;27;20116;-64
2022/08/09 07:44:29;;;;;;;4.20;2.70;;;16.60;99.90;;;;;;5099530;27;20514;-64
2022/08/09 07:46:55;;;;;;;4.90;2.63;;;16.60;99.90;;;;;;5048798;28;20037;-65
2022/08/09 07:49:21;;;;;;;5.20;2.47;;;16.60;99.90;;;;;;5047904;28;20037;-62
2022/08/09 07:51:46;;;;;;;3.85;2.17;;;16.70;99.90;;;;;;5049181;28;20066;-64
2022/08/09 07:54:12;;;;;;;5.78;2.30;;;16.70;99.90;;;;;;5049564;28;20086;-65
2022/08/09 07:56:38;;;;;;;5.22;2.15;;;16.80;99.90;;;;;;5049135;28;20041;-64
2022/08/09 07:59:06;;;;;;;4.10;2.35;;;16.80;99.90;;;;;;5048740;27;20163;-64
2022/08/09 08:01:32;;;;;;;4.82;2.40;;;16.80;99.90;;;;;;5031115;28;20047;-63
2022/08/09 08:03:57;;;;;;;4.22;2.00;;;16.90;99.90;;;;;;5049104;28;20087;-65
2022/08/09 08:06:23;;;;;;;5.82;2.55;;;17.00;99.90;;;;;;5049559;28;20072;-63
2022/08/09 08:08:48;;;;;;;3.97;2.20;;;17.00;99.90;;;;;;5039472;27;20068;-65
2022/08/09 08:11:15;;;;;;;3.42;2.33;;;17.10;99.90;;;;;;5049490;28;20043;-65
2022/08/09 08:13:41;;;;;;;4.47;2.20;;;17.10;99.90;;;;;;5048793;27;20045;-65
2022/08/09 08:16:07;;;;;;;4.68;1.92;;;17.20;99.90;;;;;;5079532;27;20048;-64
2022/08/09 08:18:32;;;;;;;3.05;2.00;;;17.30;99.90;;;;;;5048327;27;20447;-62
2022/08/09 08:20:58;;;;;;;3.75;1.90;;;17.30;99.90;;;;;;5049283;28;20116;-62
2022/08/09 08:23:24;;;;;;;3.83;1.80;;;17.40;99.90;;;;;;5049006;27;20120;-64
2022/08/09 08:25:50;;;;;;;3.15;1.90;;;17.40;99.90;;;;;;5082492;27;20410;-62
2022/08/09 08:28:17;;;;;;;2.95;1.73;;;17.50;99.90;;;;;;5047532;28;20049;-62
2022/08/09 08:30:44;;;;;;;2.53;1.58;;;17.60;99.90;;;;;;5075711;27;20052;-62
2022/08/09 08:33:11;;;;;;;4.00;1.92;;;17.70;99.90;;;;;;5048954;28;20075;-62
2022/08/09 08:35:37;;;;;;;3.10;1.48;;;17.80;99.90;;;;;;5048430;27;20403;-62
2022/08/09 08:38:03;;;;;;;2.65;1.70;;;18.00;99.90;;;;;;5048859;28;20036;-63
2022/08/09 08:40:29;;;;;;;3.10;1.88;;;18.20;99.90;;;;;;5048858;28;20504;-64
2022/08/09 08:42:55;;;;;;;3.97;1.77;;;18.40;99.90;;;;;;5047543;27;20037;-63
2022/08/09 08:45:38;;;;;;;2.55;1.50;;;18.70;99.90;;;;;;5030810;28;20483;-63
2022/08/09 08:48:04;;;;;;;2.75;1.50;;;19.10;99.90;;;;;;5074875;27;20041;-63
2022/08/09 08:50:30;;;;;;;2.28;1.50;;;19.40;99.90;;;;;;5048701;28;20507;-62
2022/08/09 08:52:56;;;;;;;3.25;1.75;;;19.80;99.90;;;;;;5048107;27;20142;-62
2022/08/09 08:55:22;;;;;;;3.35;1.40;;;20.10;99.90;;;;;;5027700;28;20079;-63
2022/08/09 08:57:49;;;;;;;3.20;1.50;;;20.40;99.90;;;;;;5029521;28;20064;-63
2022/08/09 09:00:14;;;;;;;1.58;1.25;;;20.60;99.90;;;;;;5042816;28;20536;-62
2022/08/09 09:02:43;;;;;;;2.78;1.35;;;20.80;99.90;;;;;;5030496;28;20068;-62
2022/08/09 09:05:12;;;;;;;3.22;1.67;;;21.00;99.90;;;;;;5071160;27;20059;-63
2022/08/09 09:07:38;;;;;;;2.58;1.50;;;21.20;99.90;;;;;;5047791;28;20045;-63
2022/08/09 09:10:08;;;;;;;3.63;1.60;;;21.40;99.90;;;;;;5060630;27;20044;-63
2022/08/09 09:12:34;;;;;;;5.10;1.48;;;21.60;99.90;;;;;;5047608;28;20049;-63
2022/08/09 09:15:01;;;;;;;3.65;1.70;;;21.80;99.90;;;;;;5065043;27;20046;-63
2022/08/09 09:17:27;;;;;;;3.15;1.50;;;22.00;99.90;;;;;;5065010;27;20084;-65
2022/08/09 09:19:53;;;;;;;1.88;1.33;;;22.00;99.90;;;;;;5048352;27;20110;-63
2022/08/09 09:22:20;;;;;;;1.90;1.30;;;22.00;99.90;;;;;;5041004;27;20460;-63
2022/08/09 09:24:53;;;;;;;2.63;1.50;;;22.00;99.90;;;;;;5075146;27;20490;-67
2022/08/09 09:27:25;;;;;;;2.15;1.40;;;22.00;99.90;;;;;;5073538;27;20045;-66
2022/08/09 09:29:52;;;;;;;;;;;22.10;99.90;;;;;;5061698;27;20049;-61
2022/08/09 09:32:20;;;;;;;1.83;1.30;;;22.20;99.90;;;;;;5047557;28;19917;-63
2022/08/09 09:35:01;;;;;;;3.03;1.40;;;22.40;99.90;;;;;;5045089;27;20037;-62
2022/08/09 09:37:28;;;;;;;3.45;1.45;;;22.70;99.90;;;;;;5052504;27;20052;-62
2022/08/09 09:39:54;;;;;;;2.30;1.38;;;23.00;99.90;;;;;;5062699;27;20037;-62
2022/08/09 09:42:24;;;;;;;2.30;1.20;;;23.30;99.90;;;;;;5047474;27;20033;-63
2022/08/09 09:44:58;;;;;;;2.22;1.27;;;23.40;99.90;;;;;;5073270;27;20041;-66
2022/08/09 09:47:25;;;;;;;1.65;1.27;;;23.60;99.90;;;;;;5046922;27;20391;-64
2022/08/09 09:49:53;;;;;;;2.35;1.25;;;23.60;99.90;;;;;;5047727;28;20048;-63
2022/08/09 09:52:20;;;;;;;2.78;1.20;;;23.60;99.90;;;;;;5054224;27;20499;-63
2022/08/09 09:54:46;;;;;;;1.25;1.08;;;23.80;99.90;;;;;;5047651;28;20037;-66
2022/08/09 09:57:22;;;;;;;1.17;1.08;;;23.80;99.90;;;;;;5036206;28;20412;-63
2022/08/09 09:59:49;;;;;;;1.75;1.23;;;23.80;99.40;;;;;;5085788;27;20045;-63
2022/08/09 10:02:17;;;;;;;1.40;1.00;;;23.90;99.30;;;;;;5047362;28;20116;-63
2022/08/09 10:04:44;;;;;;;1.25;0.90;;;24.00;99.40;;;;;;5046738;28;20048;-63
2022/08/09 10:07:25;;;;;;;3.17;1.13;;;24.20;99.10;;;;;;5062442;27;20043;-63
2022/08/09 10:09:54;;;;;;;1.52;1.00;;;24.40;97.30;;;;;;5042074;28;20390;-66
2022/08/09 10:12:30;;;;;;;2.15;1.00;;;24.40;98.20;;;;;;5046916;27;20131;-63
2022/08/09 10:15:16;;;;;;;3.17;1.00;;;24.60;96.90;;;;;;5086590;27;20045;-63
2022/08/09 10:17:44;;;;;;;1.60;1.20;;;24.70;95.80;;;;;;5058542;27;20077;-63
2022/08/09 10:20:18;;;;;;;2.40;1.25;;;24.80;96.70;;;;;;5051282;27;20033;-63
2022/08/09 10:22:45;;;;;;;2.58;1.08;;;24.90;95.80;;;;;;5042107;28;20044;-62
2022/08/09 10:25:12;;;;;;;2.72;1.17;;;25.00;96.10;;;;;;5065074;27;20094;-65
2022/08/09 10:27:38;;;;;;;1.48;0.98;;;25.00;95.90;;;;;;5046854;27;20060;-63
2022/08/09 10:30:06;;;;;;;1.92;1.20;;;25.00;95.30;;;;;;5046930;27;20041;-62
2022/08/09 10:32:32;;;;;;;1.63;1.05;;;24.90;94.70;;;;;;5046783;28;20029;-63
2022/08/09 10:34:58;;;;;;;0.90;0.90;;;24.90;94.90;;;;;;5055515;28;20048;-66
2022/08/09 10:37:24;;;;;;;1.95;0.98;;;24.90;95.10;;;;;;5042034;28;20033;-63
2022/08/09 10:39:51;;;;;;;1.17;1.00;;;25.00;95.10;;;;;;5068086;28;20121;-63
2022/08/09 10:42:18;;;;;;;1.42;0.90;;;25.00;94.70;;;;;;5046924;28;20045;-63
2022/08/09 10:44:52;;;;;;;1.00;1.00;;;25.10;94.30;;;;;;5045097;28;20391;-66
2022/08/09 10:47:59;;;;;;;1.00;0.85;;;25.20;93.90;;;;;;5046726;27;20043;-63
2022/08/09 10:53:42;;;;;;;1.77;1.00;;;25.30;93.00;;;;;;4988567;28;20042;-63
2022/08/09 10:56:26;;;;;;;0.80;0.80;;;25.50;92.80;;;;;;5039246;28;20132;-63
2022/08/09 10:58:54;;;;;;;0.93;0.93;;;25.50;92.00;;;;;;5032739;28;20121;-64
2022/08/09 11:01:31;;;;;;;1.30;0.90;;;25.50;92.90;;;;;;5051184;27;20044;-63
2022/08/09 11:04:10;;;;;;;1.48;0.90;;;25.60;91.50;;;;;;5081319;27;20089;-63
2022/08/09 11:06:36;;;;;;;1.00;0.90;;;25.70;91.30;;;;;;5065264;28;20391;-63
2022/08/09 11:09:06;;;;;;;1.10;1.00;;;25.80;91.90;;;;;;5046254;27;20040;-65
2022/08/09 11:11:54;;;;;;;1.38;1.00;;;25.90;91.00;;;;;;5050243;27;20033;-65
2022/08/09 11:14:43;;;;;;;1.45;1.00;;;26.00;89.80;;;;;;5049404;27;20132;-63
2022/08/09 11:17:12;;;;;;;1.35;1.00;;;26.10;88.60;;;;;;5064732;27;20515;-63
2022/08/09 11:20:00;;;;;;;0.70;0.70;;;26.20;89.90;;;;;;5037666;27;20044;-63
2022/08/09 11:22:43;;;;;;;1.42;0.82;;;26.20;85.30;;;;;;5048161;27;20065;-63
2022/08/09 11:25:12;;;;;;;1.10;1.00;;;26.30;85.10;;;;;;5042846;27;20040;-63
2022/08/09 11:27:50;;;;;;;1.48;1.00;;;26.30;87.10;;;;;;5049232;28;20124;-64
2022/08/09 11:30:21;;;;;;;1.00;0.90;;;26.40;86.70;;;;;;5050064;27;20045;-63
2022/08/09 11:33:08;;;;;;;1.90;1.08;;;26.50;86.80;;;;;;5029781;28;20037;-64
2022/08/09 11:35:44;;;;;;;2.25;0.90;;;26.60;86.80;;;;;;5051626;28;20522;-63
2022/08/09 11:38:17;;;;;;;1.95;1.00;;;26.60;86.10;;;;;;5049358;28;20496;-64
2022/08/09 11:40:43;;;;;;;1.10;0.90;;;26.70;85.30;;;;;;5031650;28;20041;-63
2022/08/09 11:43:14;;;;;;;1.52;0.73;;;26.70;85.70;;;;;;5044131;28;20125;-65
2022/08/09 11:45:56;;;;;;;1.05;0.90;;;26.80;84.20;;;;;;5030494;28;20086;-64
2022/08/09 11:48:28;;;;;;;1.65;1.08;;;26.80;79.70;;;;;;5030749;28;20491;-63
2022/08/09 11:50:57;;;;;;;1.23;0.93;;;26.80;80.90;;;;;;5028341;27;20056;-64
2022/08/09 11:53:26;;;;;;;1.08;1.00;;;26.70;80.00;;;;;;5075290;27;20041;-63
2022/08/09 11:55:58;;;;;;;1.25;1.10;;;26.80;80.40;;;;;;5084523;27;20045;-63
2022/08/09 11:58:27;;;;;;;1.77;1.00;;;26.80;78.50;;;;;;5074660;27;20399;-63
2022/08/09 12:01:00;;;;;;;1.15;1.05;;;26.90;78.90;;;;;;5048374;27;20403;-64
2022/08/09 12:03:27;;;;;;;1.20;1.10;;;27.00;77.60;;;;;;5062305;27;20098;-64
2022/08/09 12:05:56;;;;;;;1.35;0.82;;;27.00;78.00;;;;;;5052085;27;20129;-63
2022/08/09 12:08:24;;;;;;;1.00;0.90;;;27.10;78.10;;;;;;5059166;27;20452;-64
2022/08/09 12:10:52;;;;;;;1.08;0.95;;;27.10;77.40;;;;;;5049368;28;20227;-63
2022/08/09 12:13:40;;;;;;;1.65;0.90;;;27.20;77.50;;;;;;5031079;28;20483;-64
2022/08/09 12:16:11;;;;;;;0.98;0.98;;;27.30;75.20;;;;;;5036323;27;20045;-63
2022/08/09 12:18:41;;;;;;;0.90;0.90;;;27.30;75.40;;;;;;5046874;27;20049;-63
2022/08/09 12:21:08;;;;;;;1.58;1.05;;;27.30;74.60;;;;;;5048808;28;20045;-63
2022/08/09 12:23:41;;;;;;;1.38;1.02;;;27.30;74.30;;;;;;5049057;27;20037;-63
2022/08/09 12:26:06;;;;;;;1.38;0.95;;;27.30;73.30;;;;;;5046173;27;20041;-64
2022/08/09 12:28:33;;;;;;;0.90;0.90;;;27.40;72.80;;;;;;5066720;27;20044;-66
2022/08/09 12:31:00;;;;;;;1.00;1.00;;;27.30;73.10;;;;;;5048541;27;20041;-64
2022/08/09 12:33:26;;;;;;;2.75;1.08;;;27.30;73.20;;;;;;5049048;28;20073;-63
2022/08/09 12:36:07;;;;;;;1.35;1.13;;;27.30;73.80;;;;;;5047420;27;20044;-63
2022/08/09 12:38:33;;;;;;;1.23;1.00;;;27.30;73.90;;;;;;5032141;27;20033;-65
2022/08/09 12:40:58;;;;;;;1.25;1.15;;;27.40;74.50;;;;;;5048394;27;20060;-64
2022/08/09 12:43:27;;;;;;;0.90;0.90;;;27.40;74.60;;;;;;5034878;27;20075;-63
2022/08/09 12:45:55;;;;;;;0.82;0.82;;;27.50;74.00;;;;;;5048570;28;20037;-63
2022/08/09 12:48:22;;;;;;;1.15;0.95;;;27.40;73.40;;;;;;5047485;28;20487;-64
2022/08/09 12:50:48;;;;;;;1.00;1.00;;;27.40;73.60;;;;;;5025899;28;20060;-64
2022/08/09 12:53:29;;;;;;;2.10;1.00;;;27.40;72.50;;;;;;5050603;27;20033;-63
2022/08/09 14:39:30;;;;;;;2.67;1.10;;;27.30;70.30;;;;;;5026800;28;20495;-63
2022/08/09 14:41:56;;;;;;;3.25;0.90;;;27.30;70.50;;;;;;5046857;27;20351;-63
2022/08/09 14:44:21;;;;;;;1.27;0.80;;;27.20;70.60;;;;;;5045759;27;20037;-63